createdAt,value
2022-09-15T00:02:45.283Z,5.07
2022-09-15T00:05:47.115Z,4.80
2022-09-15T00:08:49.029Z,4.78
2022-09-15T00:11:50.437Z,5.18
2022-09-15T00:14:51.839Z,5.82
2022-09-15T00:17:53.293Z,5.45
2022-09-15T00:20:54.686Z,5.22
2022-09-15T00:23:56.874Z,5.07
2022-09-15T00:26:58.363Z,4.90
2022-09-15T00:30:00.291Z,4.35
2022-09-15T00:33:01.698Z,4.07
2022-09-15T00:36:06.299Z,4.05
2022-09-15T00:39:07.834Z,3.90
2022-09-15T00:42:18.362Z,3.60
2022-09-15T00:45:19.758Z,3.45
2022-09-15T00:48:22.687Z,3.50
2022-09-15T00:51:33.574Z,3.35
2022-09-15T00:54:36.916Z,3.22
2022-09-15T00:57:46.193Z,2.88
2022-09-15T01:00:55.641Z,2.58
2022-09-15T01:03:57.689Z,2.28
2022-09-15T01:07:04.488Z,2.47
2022-09-15T01:10:12.108Z,2.75
2022-09-15T01:13:14.671Z,2.70
2022-09-15T01:16:36.154Z,2.60
2022-09-15T01:19:59.374Z,3.00
2022-09-15T01:23:15.960Z,2.60
2022-09-15T01:26:52.856Z,2.78
2022-09-15T01:30:03.265Z,2.72
2022-09-15T01:33:19.054Z,3.65
2022-09-15T01:36:57.182Z,3.15
2022-09-15T01:40:01.729Z,3.55
2022-09-15T01:43:06.007Z,3.75
2022-09-15T01:46:09.965Z,3.72
2022-09-15T01:49:13.916Z,3.65
2022-09-15T01:52:17.762Z,4.20
2022-09-15T01:55:29.174Z,3.97
2022-09-15T01:58:31.785Z,3.90
2022-09-15T02:01:49.021Z,4.18
2022-09-15T02:04:55.409Z,3.65
2022-09-15T02:08:00.760Z,3.38
2022-09-15T02:11:16.882Z,3.92
2022-09-15T02:14:32.552Z,3.70
2022-09-15T02:17:37.465Z,4.00
2022-09-15T02:21:14.216Z,3.45
2022-09-15T02:24:21.132Z,3.50
2022-09-15T02:27:26.986Z,3.70
2022-09-15T02:30:31.235Z,3.30
2022-09-15T02:33:38.481Z,3.83
2022-09-15T02:36:41.344Z,3.40
2022-09-15T02:39:47.822Z,3.30
2022-09-15T02:42:58.238Z,3.20
2022-09-15T02:46:00.107Z,3.03
2022-09-15T02:49:01.597Z,2.75
2022-09-15T02:52:03.028Z,3.28
2022-09-15T02:55:05.032Z,2.70
2022-09-15T02:58:06.558Z,2.85
2022-09-15T03:01:08.719Z,3.35
2022-09-15T03:04:10.174Z,3.00
2022-09-15T03:07:11.584Z,2.97
2022-09-15T03:10:13.572Z,2.35
2022-09-15T03:13:14.964Z,2.92
2022-09-15T03:16:16.444Z,3.47
2022-09-15T03:19:17.888Z,2.70
2022-09-15T03:22:19.272Z,2.60
2022-09-15T03:25:21.759Z,2.47
2022-09-15T03:28:23.192Z,2.20
2022-09-15T03:31:24.857Z,2.33
2022-09-15T03:34:26.371Z,2.75
2022-09-15T03:37:28.294Z,2.65
2022-09-15T03:40:29.746Z,2.53
2022-09-15T03:43:32.178Z,2.95
2022-09-15T03:46:33.776Z,2.20
2022-09-15T03:49:35.196Z,2.50
2022-09-15T03:52:36.685Z,2.95
2022-09-15T03:55:38.117Z,2.67
2022-09-15T03:58:39.614Z,3.08
2022-09-15T04:01:41.360Z,3.90
2022-09-15T04:04:42.825Z,4.20
2022-09-15T04:07:44.285Z,4.45
2022-09-15T04:10:45.703Z,3.90
2022-09-15T04:13:47.337Z,4.22
2022-09-15T04:16:48.794Z,4.28
2022-09-15T04:19:50.214Z,4.72
2022-09-15T04:22:51.623Z,4.00
2022-09-15T04:25:57.616Z,3.95
2022-09-15T04:29:03.960Z,2.28
2022-09-15T04:32:06.305Z,1.70
2022-09-15T04:35:08.026Z,2.10
2022-09-15T04:38:09.491Z,1.50
2022-09-15T04:41:12.203Z,1.55
2022-09-15T04:44:13.642Z,1.40
2022-09-15T04:47:15.079Z,1.80
2022-09-15T04:50:16.588Z,1.42
2022-09-15T04:53:18.216Z,1.70
2022-09-15T04:56:22.123Z,1.60
2022-09-15T04:59:23.528Z,1.60
2022-09-15T05:02:24.956Z,1.80
2022-09-15T05:05:26.528Z,1.80
2022-09-15T05:08:27.921Z,1.75
2022-09-15T05:11:29.320Z,2.05
2022-09-15T05:14:30.745Z,1.90
2022-09-15T05:17:32.610Z,2.22
2022-09-15T05:20:34.001Z,2.28
2022-09-15T05:23:36.015Z,2.22
2022-09-15T05:26:37.524Z,1.83
2022-09-15T05:29:38.965Z,1.90
2022-09-15T05:32:40.395Z,1.80
2022-09-15T05:35:59.159Z,1.90
2022-09-15T05:39:00.612Z,1.70
2022-09-15T05:42:02.024Z,2.17
2022-09-15T05:45:03.716Z,1.80
2022-09-15T05:48:05.182Z,1.70
2022-09-15T05:51:06.882Z,1.73
2022-09-15T05:54:08.283Z,1.50
2022-09-15T05:57:09.674Z,1.55
2022-09-15T06:00:11.872Z,1.35
2022-09-15T06:03:17.059Z,1.70
2022-09-15T06:06:19.415Z,1.30
2022-09-15T06:09:20.891Z,1.40
2022-09-15T06:12:22.333Z,1.92
2022-09-15T06:15:24.178Z,1.08
2022-09-15T06:18:25.547Z,1.52
2022-09-15T06:21:28.735Z,1.58
2022-09-15T06:24:30.156Z,1.57
2022-09-15T06:27:31.933Z,2.00
2022-09-15T06:30:33.336Z,1.42
2022-09-15T06:33:34.768Z,1.40
2022-09-15T06:36:37.381Z,1.85
2022-09-15T06:39:38.914Z,1.70
2022-09-15T06:42:40.313Z,1.75
2022-09-15T06:45:41.798Z,1.27
2022-09-15T06:48:48.018Z,1.45
2022-09-15T06:51:49.821Z,1.63
2022-09-15T06:54:51.221Z,1.50
2022-09-15T06:57:52.629Z,1.33
2022-09-15T07:00:54.076Z,1.33
2022-09-15T07:03:56.791Z,1.52
2022-09-15T07:06:58.189Z,1.38
2022-09-15T07:10:00.058Z,1.58
2022-09-15T07:13:01.513Z,1.42
2022-09-15T07:16:05.187Z,1.60
2022-09-15T07:19:06.665Z,1.70
2022-09-15T07:22:08.056Z,1.42
2022-09-15T07:25:09.738Z,1.50
2022-09-15T07:28:12.348Z,1.77
2022-09-15T07:31:16.714Z,1.30
2022-09-15T07:34:18.241Z,1.40
2022-09-15T07:37:20.241Z,1.33
2022-09-15T07:40:21.708Z,1.52
2022-09-15T07:43:23.161Z,1.60
2022-09-15T07:46:26.118Z,1.25
2022-09-15T07:49:27.759Z,1.55
2022-09-15T07:52:29.185Z,1.55
2022-09-15T07:55:30.627Z,1.70
2022-09-15T07:58:32.761Z,1.50
2022-09-15T08:01:35.297Z,1.70
2022-09-15T08:04:36.792Z,1.60
2022-09-15T08:07:38.184Z,1.35
2022-09-15T08:10:40.389Z,1.40
2022-09-15T08:13:41.780Z,1.55
2022-09-15T08:16:43.209Z,1.45
2022-09-15T08:19:44.631Z,1.20
2022-09-15T08:22:46.315Z,1.38
2022-09-15T08:25:47.728Z,1.02
2022-09-15T08:28:49.269Z,1.20
2022-09-15T08:31:50.741Z,1.02
2022-09-15T08:34:52.169Z,1.35
2022-09-15T08:37:54.070Z,1.20
2022-09-15T08:41:06.119Z,1.17
2022-09-15T08:44:31.522Z,0.77
2022-09-15T08:47:39.772Z,1.75
2022-09-15T08:50:50.963Z,1.23
2022-09-15T08:53:59.711Z,1.13
2022-09-15T08:57:04.416Z,1.20
2022-09-15T09:00:13.310Z,1.10
2022-09-15T09:03:52.446Z,0.70
2022-09-15T09:07:20.786Z,0.80
2022-09-15T09:10:32.279Z,0.82
2022-09-15T09:14:06.949Z,1.10
2022-09-15T09:17:33.044Z,1.10
2022-09-15T09:20:43.129Z,0.70
2022-09-15T09:24:01.692Z,0.68
2022-09-15T09:27:04.145Z,1.17
2022-09-15T09:30:21.222Z,1.20
2022-09-15T09:33:28.094Z,0.88
2022-09-15T09:36:29.571Z,1.20
2022-09-15T09:39:32.512Z,0.93
2022-09-15T09:42:34.972Z,1.40
2022-09-15T09:45:36.742Z,1.00
2022-09-15T09:48:38.616Z,0.73
2022-09-15T09:51:51.479Z,1.00
2022-09-15T09:55:03.628Z,0.82
2022-09-15T09:58:18.096Z,1.10
2022-09-15T10:01:25.720Z,0.93
2022-09-15T10:04:27.232Z,0.80
2022-09-15T10:07:33.361Z,0.95
2022-09-15T10:10:34.773Z,1.05
2022-09-15T10:13:50.673Z,1.00
2022-09-15T10:17:18.791Z,1.00
2022-09-15T10:20:33.477Z,1.30
2022-09-15T10:23:35.631Z,1.20
2022-09-15T10:26:37.208Z,1.02
2022-09-15T10:29:39.447Z,1.02
2022-09-15T10:32:42.464Z,1.10
2022-09-15T10:35:44.455Z,0.90
2022-09-15T10:38:54.349Z,1.30
2022-09-15T10:42:11.873Z,1.20
2022-09-15T10:45:32.684Z,1.00
2022-09-15T10:48:48.012Z,1.10
2022-09-15T10:51:58.846Z,1.00
2022-09-15T10:55:10.175Z,0.82
2022-09-15T10:58:23.454Z,1.05
2022-09-15T11:01:30.676Z,1.58
2022-09-15T11:04:56.858Z,0.90
2022-09-15T11:08:20.278Z,1.17
2022-09-15T11:11:30.664Z,0.80
2022-09-15T11:14:51.468Z,0.82
2022-09-15T11:18:03.716Z,1.02
2022-09-15T11:21:24.704Z,1.00
2022-09-15T11:24:39.733Z,0.90
2022-09-15T11:28:19.989Z,1.00
2022-09-15T11:31:31.807Z,0.90
2022-09-15T11:34:41.038Z,1.02
2022-09-15T11:37:48.242Z,1.08
2022-09-15T11:41:04.993Z,1.55
2022-09-15T11:44:38.786Z,0.75
2022-09-15T11:47:43.713Z,0.90
2022-09-15T11:50:49.711Z,1.25
2022-09-15T11:54:13.230Z,1.00
2022-09-15T11:57:20.311Z,1.10
2022-09-15T12:00:21.746Z,0.80
2022-09-15T12:03:57.535Z,0.98
2022-09-15T12:07:14.883Z,0.90
2022-09-15T12:10:25.581Z,0.70
2022-09-15T12:13:27.241Z,1.27
2022-09-15T12:16:29.983Z,0.80
2022-09-15T12:19:48.600Z,0.95
2022-09-15T12:22:59.013Z,0.90
2022-09-15T12:26:04.527Z,1.00
2022-09-15T12:29:26.160Z,1.40
2022-09-15T12:32:28.360Z,0.82
2022-09-15T12:35:30.826Z,0.90
2022-09-15T12:38:32.269Z,0.93
2022-09-15T12:41:33.776Z,0.93
2022-09-15T12:44:40.006Z,0.90
2022-09-15T12:47:49.873Z,0.75
2022-09-15T12:51:09.487Z,0.80
2022-09-15T12:54:22.712Z,1.00
2022-09-15T12:57:35.843Z,1.07
2022-09-15T13:01:00.601Z,0.88
2022-09-15T13:04:04.284Z,1.10
2022-09-15T13:07:32.945Z,0.90
2022-09-15T13:10:38.122Z,0.80
2022-09-15T13:13:45.450Z,0.98
2022-09-15T13:17:04.140Z,1.17
2022-09-15T13:20:15.391Z,1.08
2022-09-15T13:23:19.433Z,0.93
2022-09-15T13:29:25.278Z,1.02
2022-09-15T13:32:44.502Z,1.20
2022-09-15T13:35:52.071Z,1.27
2022-09-15T13:39:17.640Z,0.90
2022-09-15T13:42:29.718Z,0.70
2022-09-15T13:45:59.259Z,1.00
2022-09-15T13:49:30.126Z,1.20
2022-09-15T13:52:46.554Z,0.98
2022-09-15T13:55:48.299Z,1.00
2022-09-15T13:58:56.174Z,1.00
2022-09-15T14:02:08.229Z,1.42
2022-09-15T14:05:10.231Z,1.30
2022-09-15T14:08:24.568Z,0.90
2022-09-15T14:11:32.191Z,0.95
2022-09-15T14:14:40.707Z,1.05
2022-09-15T14:17:45.822Z,1.10
2022-09-15T14:21:04.768Z,1.30
2022-09-15T14:24:20.175Z,1.15
2022-09-15T14:27:27.711Z,1.08
2022-09-15T14:30:32.109Z,1.10
2022-09-15T14:33:40.175Z,1.13
2022-09-15T14:36:41.850Z,0.80
2022-09-15T14:39:52.825Z,1.10
2022-09-15T14:42:54.623Z,1.02
2022-09-15T14:46:05.675Z,0.98
2022-09-15T14:49:16.440Z,1.20
2022-09-15T14:52:29.781Z,1.00
2022-09-15T14:55:39.465Z,0.98
2022-09-15T14:58:49.905Z,1.00
2022-09-15T15:02:03.680Z,1.10
2022-09-15T15:05:10.516Z,1.17
2022-09-15T15:08:25.206Z,1.13
2022-09-15T15:11:28.820Z,0.95
2022-09-15T15:14:30.268Z,1.73
2022-09-15T15:17:34.664Z,1.13
2022-09-15T15:20:36.125Z,0.95
2022-09-15T15:23:46.827Z,1.40
2022-09-15T15:26:50.171Z,1.02
2022-09-15T15:29:51.812Z,1.00
2022-09-15T15:32:54.053Z,1.05
2022-09-15T15:36:23.012Z,1.08
2022-09-15T15:39:24.849Z,1.08
2022-09-15T15:42:27.407Z,1.23
2022-09-15T15:45:31.386Z,0.98
2022-09-15T15:51:40.460Z,1.10
2022-09-15T15:54:41.937Z,1.20
2022-09-15T15:57:44.322Z,1.27
2022-09-15T16:00:51.863Z,1.33
2022-09-15T16:03:53.525Z,1.30
2022-09-15T16:06:54.957Z,0.95
2022-09-15T16:09:56.369Z,1.08
2022-09-15T16:12:57.755Z,1.13
2022-09-15T16:16:00.320Z,0.90
2022-09-15T16:19:01.834Z,0.80
2022-09-15T16:22:03.407Z,0.98
2022-09-15T16:25:23.109Z,0.90
2022-09-15T16:28:24.577Z,1.38
2022-09-15T16:31:26.325Z,1.10
2022-09-15T16:34:27.758Z,1.13
2022-09-15T16:37:29.166Z,1.10
2022-09-15T16:40:30.611Z,0.90
2022-09-15T16:43:32.306Z,1.10
2022-09-15T16:46:33.705Z,0.93
2022-09-15T16:49:35.143Z,1.30
2022-09-15T16:52:36.549Z,1.20
2022-09-15T16:55:40.866Z,1.10
2022-09-15T16:58:43.107Z,1.42
2022-09-15T17:01:44.748Z,1.05
2022-09-15T17:04:46.232Z,0.75
2022-09-15T17:07:47.717Z,1.00
2022-09-15T17:10:49.433Z,1.05
2022-09-15T17:13:50.979Z,0.80
2022-09-15T17:16:52.407Z,1.20
2022-09-15T17:19:53.801Z,1.05
2022-09-15T17:22:55.372Z,1.10
2022-09-15T17:25:59.406Z,0.93
2022-09-15T17:29:00.820Z,1.13
2022-09-15T17:32:02.270Z,1.00
2022-09-15T17:35:15.548Z,1.15
2022-09-15T17:38:17.580Z,0.77
2022-09-15T17:41:20.729Z,0.90
2022-09-15T17:44:22.116Z,0.98
2022-09-15T17:47:23.542Z,1.40
2022-09-15T17:50:27.542Z,1.00
2022-09-15T17:53:28.970Z,1.10
2022-09-15T17:56:30.398Z,1.35
2022-09-15T17:59:31.799Z,1.35
2022-09-15T18:02:33.221Z,0.80
2022-09-15T18:05:36.367Z,1.55
2022-09-15T18:08:37.788Z,0.90
2022-09-15T18:11:39.180Z,0.70
2022-09-15T18:14:40.575Z,1.02
2022-09-15T18:17:42.164Z,1.30
2022-09-15T18:20:44.182Z,1.00
2022-09-15T18:23:45.606Z,0.90
2022-09-15T18:26:47.013Z,1.20
2022-09-15T18:29:48.464Z,1.25
2022-09-15T18:32:50.260Z,1.40
2022-09-15T18:35:54.687Z,0.93
2022-09-15T18:38:56.163Z,1.42
2022-09-15T18:41:57.560Z,1.02
2022-09-15T18:44:59.165Z,0.95
2022-09-15T18:48:00.674Z,1.63
2022-09-15T18:51:07.676Z,1.25
2022-09-15T18:54:09.078Z,1.02
2022-09-15T18:57:10.549Z,0.90
2022-09-15T19:00:21.004Z,1.00
2022-09-15T19:03:22.419Z,1.10
2022-09-15T19:06:23.805Z,1.30
2022-09-15T19:09:25.267Z,1.08
2022-09-15T19:12:26.725Z,1.10
2022-09-15T19:15:28.149Z,1.10
2022-09-15T19:18:29.926Z,0.90
2022-09-15T19:21:31.369Z,1.52
2022-09-15T19:24:33.919Z,1.40
2022-09-15T19:27:36.480Z,1.10
2022-09-15T19:30:37.903Z,1.02
2022-09-15T19:33:39.814Z,1.00
2022-09-15T19:36:41.202Z,0.85
2022-09-15T19:39:43.430Z,1.10
2022-09-15T19:42:45.364Z,1.10
2022-09-15T19:45:46.790Z,0.90
2022-09-15T19:48:50.205Z,1.75
2022-09-15T19:51:52.559Z,1.13
2022-09-15T19:54:54.097Z,0.85
2022-09-15T19:57:55.502Z,1.00
2022-09-15T20:00:57.392Z,1.30
2022-09-15T20:03:59.615Z,0.90
2022-09-15T20:07:01.214Z,1.15
2022-09-15T20:10:03.406Z,1.17
2022-09-15T20:13:04.821Z,1.23
2022-09-15T20:16:07.313Z,1.73
2022-09-15T20:19:08.734Z,1.75
2022-09-15T20:22:10.169Z,1.25
2022-09-15T20:25:11.606Z,1.52
2022-09-15T20:28:13.057Z,1.60
2022-09-15T20:31:17.203Z,1.17
2022-09-15T20:37:19.917Z,1.70
2022-09-15T20:40:21.378Z,1.55
2022-09-15T20:43:22.814Z,1.58
2022-09-15T20:46:24.262Z,1.67
2022-09-15T20:49:25.684Z,1.35
2022-09-15T20:52:33.536Z,1.58
2022-09-15T20:55:37.397Z,1.52
2022-09-15T20:58:39.212Z,1.08
2022-09-15T21:01:40.708Z,1.50
2022-09-15T21:04:44.224Z,1.13
2022-09-15T21:07:47.628Z,1.30
2022-09-15T21:10:49.012Z,2.10
2022-09-15T21:13:50.819Z,2.25
2022-09-15T21:16:52.345Z,1.67
2022-09-15T21:19:53.765Z,1.20
2022-09-15T21:22:56.360Z,1.10
2022-09-15T21:26:04.048Z,1.00
2022-09-15T21:29:05.441Z,1.70
2022-09-15T21:32:06.911Z,1.15
2022-09-15T21:35:08.582Z,1.30
2022-09-15T21:38:10.009Z,1.10
2022-09-15T21:41:14.682Z,1.50
2022-09-15T21:44:16.186Z,1.25
2022-09-15T21:47:18.781Z,1.30
2022-09-15T21:50:20.225Z,1.25
2022-09-15T21:53:22.125Z,1.33
2022-09-15T21:56:24.917Z,2.35
2022-09-15T21:59:26.347Z,1.20
2022-09-15T22:02:27.793Z,1.23
2022-09-15T22:05:29.368Z,1.67
2022-09-15T22:08:30.831Z,1.60
2022-09-15T22:11:32.422Z,1.40
2022-09-15T22:14:33.832Z,1.35
2022-09-15T22:17:35.265Z,1.60
2022-09-15T22:20:36.712Z,1.20
2022-09-15T22:23:38.711Z,1.23
2022-09-15T22:26:41.122Z,1.38
2022-09-15T22:29:42.540Z,1.40
2022-09-15T22:32:44.093Z,1.20
2022-09-15T22:35:48.281Z,1.48
2022-09-15T22:41:51.002Z,1.10
2022-09-15T22:44:52.607Z,1.40
2022-09-15T22:47:54.044Z,1.45
2022-09-15T22:50:55.482Z,1.38
2022-09-15T22:53:57.051Z,1.48
2022-09-15T22:56:58.911Z,1.67
2022-09-15T23:00:00.317Z,1.30
2022-09-15T23:03:01.702Z,1.80
2022-09-15T23:06:03.732Z,1.45
2022-09-15T23:09:08.122Z,1.70
2022-09-15T23:12:09.543Z,1.67
2022-09-15T23:15:11.298Z,1.80
2022-09-15T23:18:12.681Z,1.60
2022-09-15T23:21:14.334Z,1.80
2022-09-15T23:24:15.758Z,1.70
2022-09-15T23:27:17.227Z,1.50
2022-09-15T23:30:18.815Z,1.45
2022-09-15T23:33:21.075Z,1.38
2022-09-15T23:36:22.531Z,1.58
2022-09-15T23:39:24.102Z,1.42
2022-09-15T23:42:25.512Z,1.88
2022-09-15T23:45:27.002Z,1.67
2022-09-15T23:48:28.567Z,1.60
2022-09-15T23:51:30.069Z,1.58
2022-09-15T23:54:31.537Z,1.95
2022-09-15T23:57:32.976Z,2.10
